Private Wetterstation Sandau
Wetterdaten: Samstag, 07.07.2012
Datum Zeit Temp. A. Feuchte A. Luftdruck Regen Wind Richtung Richtung Taupunkt Windchill
07.07.2012 00:01 21,7 C 78 % 1012,7 hPa 0,0 l/m 0,0 km/h (0 Bft) SO 135 17,7 C 21,7 C
07.07.2012 00:06 21,6 C 78 % 1012,5 hPa 0,0 l/m 0,0 km/h (0 Bft) SO 135 17,6 C 21,6 C
07.07.2012 00:11 21,6 C 78 % 1012,5 hPa 0,0 l/m 1,1 km/h (1 Bft) SO 135 17,6 C 21,6 C
07.07.2012 00:16 21,6 C 78 % 1012,7 hPa 0,0 l/m 0,0 km/h (0 Bft) SO 135 17,6 C 21,6 C
07.07.2012 00:21 21,6 C 78 % 1012,7 hPa 0,0 l/m 0,0 km/h (0 Bft) SO 135 17,6 C 21,6 C
07.07.2012 00:26 21,4 C 78 % 1012,7 hPa 0,0 l/m 0,0 km/h (0 Bft) SO 135 17,4 C 21,4 C
07.07.2012 00:31 21,4 C 78 % 1012,5 hPa 0,0 l/m 0,0 km/h (0 Bft) SO 135 17,4 C 21,4 C
07.07.2012 00:36 21,5 C 79 % 1012,6 hPa 0,0 l/m 0,0 km/h (0 Bft) W 270 17,7 C 21,5 C
07.07.2012 00:41 21,5 C 79 % 1012,7 hPa 0,0 l/m 0,0 km/h (0 Bft) W 270 17,7 C 21,5 C
07.07.2012 00:46 21,5 C 79 % 1012,7 hPa 0,0 l/m 0,0 km/h (0 Bft) W 270 17,7 C 21,5 C
07.07.2012 00:51 21,5 C 79 % 1012,9 hPa 0,0 l/m 0,0 km/h (0 Bft) W 270 17,7 C 21,5 C
07.07.2012 00:56 21,4 C 79 % 1012,8 hPa 0,0 l/m 0,0 km/h (0 Bft) W 270 17,6 C 21,4 C
07.07.2012 01:01 21,4 C 79 % 1012,8 hPa 0,0 l/m 0,0 km/h (0 Bft) W 270 17,6 C 21,4 C
07.07.2012 01:06 21,4 C 80 % 1012,8 hPa 0,0 l/m 0,0 km/h (0 Bft) W-SW 247 17,8 C 21,4 C
07.07.2012 01:11 21,5 C 80 % 1012,9 hPa 0,0 l/m 1,1 km/h (1 Bft) W 270 17,9 C 21,5 C
07.07.2012 01:16 21,5 C 80 % 1012,9 hPa 0,0 l/m 0,0 km/h (0 Bft) W 270 17,9 C 21,5 C
07.07.2012 01:21 21,6 C 80 % 1012,9 hPa 0,0 l/m 2,2 km/h (1 Bft) W 270 18,0 C 21,6 C
07.07.2012 01:26 21,6 C 80 % 1012,9 hPa 0,0 l/m 0,0 km/h (0 Bft) W 270 18,0 C 21,6 C
07.07.2012 01:31 21,6 C 80 % 1012,7 hPa 0,0 l/m 0,0 km/h (0 Bft) W 270 18,0 C 21,6 C
07.07.2012 01:36 21,6 C 80 % 1012,8 hPa 0,0 l/m 0,0 km/h (0 Bft) W 270 18,0 C 21,6 C
07.07.2012 01:41 21,6 C 80 % 1012,8 hPa 0,0 l/m 0,0 km/h (0 Bft) W 270 18,0 C 21,6 C
07.07.2012 01:46 21,6 C 80 % 1012,7 hPa 0,0 l/m 0,0 km/h (0 Bft) W 270 18,0 C 21,6 C
07.07.2012 01:51 21,6 C 80 % 1012,8 hPa 0,0 l/m 3,6 km/h (1 Bft) W 270 18,0 C 21,6 C
07.07.2012 01:56 21,6 C 81 % 1012,8 hPa 0,0 l/m 2,2 km/h (1 Bft) W 270 18,2 C 21,6 C
07.07.2012 02:01 21,6 C 81 % 1012,9 hPa 0,0 l/m 4,0 km/h (1 Bft) W 270 18,2 C 21,6 C
07.07.2012 02:06 21,6 C 81 % 1013,0 hPa 0,0 l/m 0,0 km/h (0 Bft) W 270 18,2 C 21,6 C
07.07.2012 02:11 21,6 C 81 % 1013,0 hPa 0,0 l/m 0,0 km/h (0 Bft) W 270 18,2 C 21,6 C
07.07.2012 02:16 21,5 C 80 % 1012,9 hPa 0,0 l/m 0,0 km/h (0 Bft) W 270 17,9 C 21,5 C
07.07.2012 02:21 21,5 C 81 % 1012,9 hPa 0,0 l/m 0,0 km/h (0 Bft) W 270 18,1 C 21,5 C
07.07.2012 02:26 21,5 C 81 % 1012,9 hPa 0,0 l/m 0,0 km/h (0 Bft) W-NW 292 18,1 C 21,5 C
07.07.2012 02:31 21,5 C 81 % 1013,0 hPa 0,0 l/m 4,3 km/h (1 Bft) W-NW 292 18,1 C 21,5 C
07.07.2012 02:36 21,5 C 81 % 1012,9 hPa 0,0 l/m 1,8 km/h (1 Bft) W-NW 292 18,1 C 21,5 C
07.07.2012 02:41 21,5 C 81 % 1012,9 hPa 0,0 l/m 2,2 km/h (1 Bft) W-NW 292 18,1 C 21,5 C
07.07.2012 02:46 21,5 C 81 % 1012,9 hPa 0,0 l/m 0,0 km/h (0 Bft) W-NW 292 18,1 C 21,5 C
07.07.2012 02:51 21,4 C 81 % 1013,0 hPa 0,0 l/m 0,0 km/h (0 Bft) W-NW 292 18,0 C 21,4 C
07.07.2012 02:56 21,4 C 81 % 1013,0 hPa 0,0 l/m 0,0 km/h (0 Bft) W-NW 292 18,0 C 21,4 C
07.07.2012 03:01 21,3 C 81 % 1013,0 hPa 0,0 l/m 0,0 km/h (0 Bft) W-NW 292 17,9 C 21,3 C
07.07.2012 03:06 21,2 C 81 % 1013,0 hPa 0,0 l/m 0,0 km/h (0 Bft) W-NW 292 17,8 C 21,2 C
07.07.2012 03:11 21,1 C 82 % 1012,8 hPa 0,0 l/m 0,0 km/h (0 Bft) W-NW 292 17,9 C 21,1 C
07.07.2012 03:16 21,1 C 82 % 1012,8 hPa 0,0 l/m 0,0 km/h (0 Bft) W-NW 292 17,9 C 21,1 C
07.07.2012 03:21 21,1 C 82 % 1012,9 hPa 0,0 l/m 0,0 km/h (0 Bft) W-NW 292 17,9 C 21,1 C
07.07.2012 03:26 21,1 C 82 % 1012,9 hPa 0,0 l/m 0,0 km/h (0 Bft) W-NW 292 17,9 C 21,1 C
07.07.2012 03:31 21,1 C 82 % 1012,8 hPa 0,0 l/m 0,0 km/h (0 Bft) W-NW 292 17,9 C 21,1 C
07.07.2012 03:36 21,1 C 82 % 1012,8 hPa 0,0 l/m 0,0 km/h (0 Bft) W-NW 292 17,9 C 21,1 C
07.07.2012 03:41 21,1 C 82 % 1012,8 hPa 0,0 l/m 1,8 km/h (1 Bft) W-NW 292 17,9 C 21,1 C
07.07.2012 03:46 21,1 C 82 % 1012,7 hPa 0,0 l/m 2,9 km/h (1 Bft) W-NW 292 17,9 C 21,1 C
07.07.2012 03:51 21,1 C 82 % 1012,7 hPa 0,0 l/m 0,0 km/h (0 Bft) N 360 17,9 C 21,1 C
07.07.2012 03:56 20,9 C 82 % 1012,8 hPa 0,0 l/m 0,0 km/h (0 Bft) N-NO 22 17,7 C 20,9 C
07.07.2012 04:01 20,9 C 82 % 1012,8 hPa 0,0 l/m 1,1 km/h (1 Bft) N-NO 22 17,7 C 20,9 C
07.07.2012 04:06 20,9 C 83 % 1012,8 hPa 0,0 l/m 0,0 km/h (0 Bft) N-NO 22 17,9 C 20,9 C
07.07.2012 04:11 20,9 C 83 % 1012,7 hPa 0,0 l/m 1,4 km/h (1 Bft) N-NW 337 17,9 C 20,9 C
07.07.2012 04:16 20,9 C 83 % 1012,8 hPa 0,0 l/m 1,8 km/h (1 Bft) N-NW 337 17,9 C 20,9 C
07.07.2012 04:21 20,9 C 83 % 1012,9 hPa 0,0 l/m 0,0 km/h (0 Bft) NW 315 17,9 C 20,9 C
07.07.2012 04:26 20,9 C 83 % 1012,8 hPa 0,0 l/m 0,0 km/h (0 Bft) NW 315 17,9 C 20,9 C
07.07.2012 04:31 20,9 C 83 % 1012,8 hPa 0,0 l/m 2,9 km/h (1 Bft) N-NW 337 17,9 C 20,9 C
07.07.2012 04:36 20,9 C 84 % 1012,9 hPa 0,0 l/m 1,4 km/h (1 Bft) N-NO 22 18,1 C 20,9 C
07.07.2012 04:41 20,8 C 84 % 1012,9 hPa 0,0 l/m 0,0 km/h (0 Bft) N-NO 22 18,0 C 20,8 C
07.07.2012 04:46 20,8 C 84 % 1012,9 hPa 0,0 l/m 0,0 km/h (0 Bft) NW 315 18,0 C 20,8 C
07.07.2012 04:51 20,9 C 84 % 1012,8 hPa 0,0 l/m 1,1 km/h (1 Bft) W-NW 292 18,1 C 20,9 C
07.07.2012 04:56 20,9 C 84 % 1013,0 hPa 0,0 l/m 2,9 km/h (1 Bft) W 270 18,1 C 20,9 C
07.07.2012 05:01 20,9 C 84 % 1012,9 hPa 0,0 l/m 0,0 km/h (0 Bft) NW 315 18,1 C 20,9 C
07.07.2012 05:06 20,9 C 84 % 1013,0 hPa 0,0 l/m 0,0 km/h (0 Bft) NW 315 18,1 C 20,9 C
07.07.2012 05:11 20,8 C 84 % 1012,9 hPa 0,0 l/m 0,0 km/h (0 Bft) NW 315 18,0 C 20,8 C
07.07.2012 05:16 20,8 C 84 % 1013,0 hPa 0,0 l/m 0,0 km/h (0 Bft) NW 315 18,0 C 20,8 C
07.07.2012 05:21 20,7 C 84 % 1013,0 hPa 0,0 l/m 0,0 km/h (0 Bft) NW 315 17,9 C 20,7 C
07.07.2012 05:26 20,7 C 84 % 1012,9 hPa 0,0 l/m 0,0 km/h (0 Bft) NW 315 17,9 C 20,7 C
07.07.2012 05:31 20,6 C 84 % 1013,0 hPa 0,0 l/m 1,4 km/h (1 Bft) NW 315 17,8 C 20,6 C
07.07.2012 05:36 20,6 C 84 % 1012,9 hPa 0,0 l/m 0,0 km/h (0 Bft) NW 315 17,8 C 20,6 C
07.07.2012 05:41 20,6 C 84 % 1012,9 hPa 0,0 l/m 3,2 km/h (1 Bft) NW 315 17,8 C 20,6 C
07.07.2012 05:46 20,6 C 84 % 1012,8 hPa 0,0 l/m 0,0 km/h (0 Bft) NW 315 17,8 C 20,6 C
07.07.2012 05:51 20,6 C 84 % 1012,9 hPa 0,0 l/m 0,0 km/h (0 Bft) NW 315 17,8 C 20,6 C
07.07.2012 05:56 20,6 C 84 % 1013,0 hPa 0,0 l/m 0,0 km/h (0 Bft) NW 315 17,8 C 20,6 C
07.07.2012 06:01 20,6 C 84 % 1012,8 hPa 0,0 l/m 0,0 km/h (0 Bft) NW 315 17,8 C 20,6 C
07.07.2012 06:06 20,6 C 84 % 1012,8 hPa 0,0 l/m 0,0 km/h (0 Bft) NW 315 17,8 C 20,6 C
07.07.2012 06:11 20,6 C 84 % 1012,7 hPa 0,0 l/m 0,0 km/h (0 Bft) NW 315 17,8 C 20,6 C
07.07.2012 06:16 20,6 C 84 % 1012,6 hPa 0,0 l/m 0,0 km/h (0 Bft) NW 315 17,8 C 20,6 C
07.07.2012 06:21 20,7 C 84 % 1012,6 hPa 0,0 l/m 2,5 km/h (1 Bft) W-NW 292 17,9 C 20,7 C
07.07.2012 06:26 20,7 C 84 % 1012,5 hPa 0,0 l/m 2,2 km/h (1 Bft) NW 315 17,9 C 20,7 C
07.07.2012 06:31 20,6 C 84 % 1012,3 hPa 0,0 l/m 2,2 km/h (1 Bft) N 360 17,8 C 20,6 C
07.07.2012 06:36 20,5 C 84 % 1012,3 hPa 0,0 l/m 1,1 km/h (1 Bft) NW 315 17,7 C 20,5 C
07.07.2012 06:41 20,4 C 85 % 1012,2 hPa 0,0 l/m 2,2 km/h (1 Bft) NW 315 17,8 C 20,4 C
07.07.2012 06:46 20,4 C 85 % 1012,2 hPa 0,0 l/m 3,6 km/h (1 Bft) NW 315 17,8 C 20,4 C
07.07.2012 06:51 20,5 C 85 % 1012,2 hPa 0,0 l/m 1,8 km/h (1 Bft) W-NW 292 17,9 C 20,5 C
07.07.2012 06:56 20,5 C 85 % 1012,3 hPa 0,0 l/m 4,0 km/h (1 Bft) N 360 17,9 C 20,5 C
07.07.2012 07:01 20,5 C 85 % 1012,2 hPa 0,0 l/m 1,4 km/h (1 Bft) N 360 17,9 C 20,5 C
07.07.2012 07:06 20,4 C 85 % 1012,4 hPa 0,0 l/m 2,2 km/h (1 Bft) N-NO 22 17,8 C 20,4 C
07.07.2012 07:11 20,4 C 85 % 1012,4 hPa 0,0 l/m 3,6 km/h (1 Bft) NW 315 17,8 C 20,4 C
07.07.2012 07:16 20,4 C 85 % 1012,4 hPa 0,0 l/m 5,8 km/h (2 Bft) NW 315 17,8 C 20,4 C
07.07.2012 07:21 20,4 C 86 % 1012,5 hPa 0,0 l/m 0,0 km/h (0 Bft) N 360 18,0 C 20,4 C
07.07.2012 07:26 20,4 C 85 % 1012,6 hPa 0,0 l/m 1,4 km/h (1 Bft) N-NW 337 17,8 C 20,4 C
07.07.2012 07:31 20,4 C 86 % 1012,7 hPa 0,0 l/m 3,2 km/h (1 Bft) W-NW 292 18,0 C 20,4 C
07.07.2012 07:36 20,5 C 85 % 1012,7 hPa 0,0 l/m 2,2 km/h (1 Bft) W-NW 292 17,9 C 20,5 C
07.07.2012 07:41 20,6 C 85 % 1012,6 hPa 0,0 l/m 4,3 km/h (1 Bft) W-NW 292 18,0 C 20,6 C
07.07.2012 07:46 20,6 C 85 % 1012,7 hPa 0,0 l/m 2,2 km/h (1 Bft) W 270 18,0 C 20,6 C
07.07.2012 07:51 20,8 C 85 % 1012,7 hPa 0,0 l/m 1,4 km/h (1 Bft) W-NW 292 18,2 C 20,8 C
07.07.2012 07:56 20,8 C 85 % 1012,8 hPa 0,0 l/m 0,0 km/h (0 Bft) NW 315 18,2 C 20,8 C
07.07.2012 08:01 20,8 C 84 % 1012,8 hPa 0,0 l/m 5,4 km/h (1 Bft) N-NW 337 18,0 C 20,8 C
07.07.2012 08:06 20,6 C 84 % 1012,9 hPa 0,0 l/m 1,8 km/h (1 Bft) NW 315 17,8 C 20,6 C
07.07.2012 08:11 20,6 C 84 % 1012,9 hPa 0,0 l/m 0,0 km/h (0 Bft) N 360 17,8 C 20,6 C
07.07.2012 08:16 20,7 C 84 % 1012,9 hPa 0,0 l/m 2,2 km/h (1 Bft) NW 315 17,9 C 20,7 C
07.07.2012 08:21 20,7 C 84 % 1013,0 hPa 0,0 l/m 0,0 km/h (0 Bft) NW 315 17,9 C 20,7 C
07.07.2012 08:26 20,6 C 84 % 1013,0 hPa 0,0 l/m 1,8 km/h (1 Bft) N 360 17,8 C 20,6 C
07.07.2012 08:31 20,6 C 84 % 1013,1 hPa 0,0 l/m 3,2 km/h (1 Bft) N-NW 337 17,8 C 20,6 C
07.07.2012 08:36 20,6 C 84 % 1013,1 hPa 0,0 l/m 1,8 km/h (1 Bft) N 360 17,8 C 20,6 C
07.07.2012 08:41 20,7 C 84 % 1013,0 hPa 0,0 l/m 4,0 km/h (1 Bft) N 360 17,9 C 20,7 C
07.07.2012 08:46 20,8 C 84 % 1013,0 hPa 0,0 l/m 3,6 km/h (1 Bft) O-NO 67 18,0 C 20,8 C
07.07.2012 08:51 20,8 C 84 % 1013,1 hPa 0,0 l/m 3,2 km/h (1 Bft) N 360 18,0 C 20,8 C
07.07.2012 08:56 20,9 C 84 % 1013,3 hPa 0,0 l/m 0,0 km/h (0 Bft) N 360 18,1 C 20,9 C
07.07.2012 09:01 21,0 C 83 % 1013,4 hPa 0,0 l/m 0,0 km/h (0 Bft) N-NO 22 18,0 C 21,0 C
07.07.2012 09:06 21,2 C 83 % 1013,4 hPa 0,0 l/m 0,0 km/h (0 Bft) N-NO 22 18,2 C 21,2 C
07.07.2012 09:11 21,3 C 83 % 1013,4 hPa 0,0 l/m 0,0 km/h (0 Bft) O-NO 67 18,3 C 21,3 C
07.07.2012 09:16 21,4 C 82 % 1013,5 hPa 0,0 l/m 0,0 km/h (0 Bft) O-NO 67 18,2 C 21,4 C
07.07.2012 09:21 21,6 C 82 % 1013,4 hPa 0,0 l/m 0,0 km/h (0 Bft) NO 45 18,4 C 21,6 C
07.07.2012 09:26 21,8 C 81 % 1013,3 hPa 0,0 l/m 3,6 km/h (1 Bft) NO 45 18,4 C 21,8 C
07.07.2012 09:31 21,8 C 81 % 1013,5 hPa 0,0 l/m 3,6 km/h (1 Bft) N-NO 22 18,4 C 21,8 C
07.07.2012 09:36 21,9 C 80 % 1013,6 hPa 0,0 l/m 1,8 km/h (1 Bft) N 360 18,3 C 21,9 C
07.07.2012 09:41 22,1 C 80 % 1013,5 hPa 0,0 l/m 1,4 km/h (1 Bft) SW 225 18,5 C 22,1 C
07.07.2012 09:46 22,3 C 80 % 1013,4 hPa 0,0 l/m 2,2 km/h (1 Bft) N-NO 22 18,7 C 22,3 C
07.07.2012 09:51 22,3 C 79 % 1013,4 hPa 0,0 l/m 1,8 km/h (1 Bft) N-NO 22 18,5 C 22,3 C
07.07.2012 09:56 22,4 C 79 % 1013,4 hPa 0,0 l/m 3,2 km/h (1 Bft) NO 45 18,6 C 22,4 C
07.07.2012 10:01 22,6 C 77 % 1013,4 hPa 0,0 l/m 2,9 km/h (1 Bft) N-NO 22 18,4 C 22,6 C
07.07.2012 10:06 23,0 C 77 % 1013,3 hPa 0,0 l/m 1,1 km/h (1 Bft) N 360 18,7 C 23,0 C
07.07.2012 10:11 23,4 C 75 % 1013,1 hPa 0,0 l/m 3,6 km/h (1 Bft) O-NO 67 18,7 C 23,4 C
07.07.2012 10:16 23,7 C 74 % 1013,4 hPa 0,0 l/m 0,0 km/h (0 Bft) N-NW 337 18,8 C 23,7 C
07.07.2012 10:21 23,8 C 72 % 1013,2 hPa 0,0 l/m 4,0 km/h (1 Bft) N-NW 337 18,4 C 23,8 C
07.07.2012 10:26 23,8 C 72 % 1013,2 hPa 0,0 l/m 2,9 km/h (1 Bft) N 360 18,4 C 23,8 C
07.07.2012 10:31 23,9 C 72 % 1013,2 hPa 0,0 l/m 2,5 km/h (1 Bft) N 360 18,5 C 23,9 C
07.07.2012 10:36 23,9 C 71 % 1013,2 hPa 0,0 l/m 0,0 km/h (0 Bft) N 360 18,3 C 23,9 C
07.07.2012 10:41 24,1 C 71 % 1013,2 hPa 0,0 l/m 2,2 km/h (1 Bft) N 360 18,5 C 24,1 C
07.07.2012 10:46 24,0 C 70 % 1013,3 hPa 0,0 l/m 4,7 km/h (1 Bft) N-NO 22 18,2 C 24,0 C
07.07.2012 10:51 23,9 C 70 % 1013,3 hPa 0,0 l/m 2,9 km/h (1 Bft) N-NW 337 18,1 C 23,9 C
07.07.2012 10:56 23,9 C 71 % 1013,4 hPa 0,0 l/m 1,8 km/h (1 Bft) N 360 18,3 C 23,9 C
07.07.2012 11:01 23,9 C 72 % 1013,5 hPa 0,0 l/m 2,2 km/h (1 Bft) N-NW 337 18,5 C 23,9 C
07.07.2012 11:06 23,9 C 71 % 1013,7 hPa 0,0 l/m 2,5 km/h (1 Bft) N-NW 337 18,3 C 23,9 C
07.07.2012 11:11 24,3 C 69 % 1013,8 hPa 0,0 l/m 7,2 km/h (2 Bft) N 360 18,2 C 24,3 C
07.07.2012 11:16 23,9 C 67 % 1013,7 hPa 0,0 l/m 4,0 km/h (1 Bft) N 360 17,4 C 23,9 C
07.07.2012 11:21 23,8 C 67 % 1013,6 hPa 0,0 l/m 3,2 km/h (1 Bft) N-NO 22 17,3 C 23,8 C
07.07.2012 11:26 23,8 C 68 % 1013,8 hPa 0,0 l/m 1,4 km/h (1 Bft) O-NO 67 17,5 C 23,8 C
07.07.2012 11:31 23,6 C 68 % 1013,8 hPa 0,0 l/m 4,7 km/h (1 Bft) N 360 17,3 C 23,6 C
07.07.2012 11:36 23,5 C 69 % 1013,8 hPa 0,0 l/m 5,0 km/h (1 Bft) N 360 17,5 C 23,5 C
07.07.2012 11:41 23,6 C 69 % 1013,7 hPa 0,0 l/m 2,5 km/h (1 Bft) NO 45 17,6 C 23,6 C
07.07.2012 11:46 24,1 C 68 % 1013,5 hPa 0,0 l/m 3,6 km/h (1 Bft) NO 45 17,8 C 24,1 C
07.07.2012 11:51 24,8 C 67 % 1013,6 hPa 0,0 l/m 3,6 km/h (1 Bft) NO 45 18,2 C 24,8 C
07.07.2012 11:56 24,9 C 65 % 1013,6 hPa 0,0 l/m 0,0 km/h (0 Bft) NO 45 17,9 C 24,9 C
07.07.2012 12:01 25,6 C 63 % 1013,5 hPa 0,0 l/m 6,5 km/h (2 Bft) O-NO 67 18,0 C 25,6 C
07.07.2012 12:06 25,4 C 63 % 1013,7 hPa 0,0 l/m 3,6 km/h (1 Bft) N-NO 22 17,8 C 25,4 C
07.07.2012 12:11 25,2 C 64 % 1013,5 hPa 0,0 l/m 2,5 km/h (1 Bft) NO 45 17,9 C 25,2 C
07.07.2012 12:16 25,4 C 64 % 1013,5 hPa 0,0 l/m 5,4 km/h (1 Bft) N-NO 22 18,1 C 25,4 C
07.07.2012 12:21 24,7 C 64 % 1013,5 hPa 0,0 l/m 4,3 km/h (1 Bft) O-NO 67 17,4 C 24,7 C
07.07.2012 12:26 24,7 C 66 % 1013,6 hPa 0,0 l/m 6,1 km/h (2 Bft) N 360 17,9 C 24,7 C
07.07.2012 12:31 24,4 C 66 % 1013,6 hPa 0,0 l/m 6,5 km/h (2 Bft) N-NO 22 17,6 C 24,4 C
07.07.2012 12:36 24,3 C 67 % 1013,6 hPa 0,0 l/m 3,2 km/h (1 Bft) NO 45 17,8 C 24,3 C
07.07.2012 12:41 24,2 C 68 % 1013,6 hPa 0,0 l/m 0,0 km/h (0 Bft) N-NO 22 17,9 C 24,2 C
07.07.2012 12:46 24,2 C 68 % 1013,5 hPa 0,0 l/m 2,9 km/h (1 Bft) N-NO 22 17,9 C 24,2 C
07.07.2012 12:51 24,1 C 67 % 1013,6 hPa 0,0 l/m 5,0 km/h (1 Bft) N-NO 22 17,6 C 24,1 C
07.07.2012 12:56 24,3 C 68 % 1013,4 hPa 0,0 l/m 3,2 km/h (1 Bft) NW 315 18,0 C 24,3 C
07.07.2012 13:01 24,6 C 67 % 1013,4 hPa 0,0 l/m 3,2 km/h (1 Bft) W-NW 292 18,1 C 24,6 C
07.07.2012 13:06 24,9 C 64 % 1013,6 hPa 0,0 l/m 3,6 km/h (1 Bft) W 270 17,6 C 24,9 C
07.07.2012 13:11 25,3 C 64 % 1013,5 hPa 0,0 l/m 6,8 km/h (2 Bft) W-NW 292 18,0 C 25,3 C
07.07.2012 13:16 25,9 C 63 % 1013,6 hPa 0,0 l/m 0,0 km/h (0 Bft) W 270 18,3 C 25,9 C
07.07.2012 13:21 27,1 C 60 % 1013,4 hPa 0,0 l/m 3,6 km/h (1 Bft) N-NO 22 18,6 C 27,1 C
07.07.2012 13:26 26,8 C 60 % 1013,6 hPa 0,0 l/m 8,6 km/h (2 Bft) NW 315 18,4 C 26,8 C
07.07.2012 13:31 26,4 C 60 % 1013,5 hPa 0,0 l/m 10,4 km/h (2 Bft) N 360 18,0 C 26,4 C
07.07.2012 13:36 25,9 C 61 % 1013,5 hPa 0,0 l/m 15,8 km/h (3 Bft) NW 315 17,8 C 25,9 C
07.07.2012 13:41 25,6 C 61 % 1013,5 hPa 0,0 l/m 14,4 km/h (3 Bft) W-NW 292 17,5 C 25,6 C
07.07.2012 13:46 24,6 C 59 % 1013,5 hPa 0,0 l/m 21,6 km/h (4 Bft) NW 315 16,0 C 24,6 C
07.07.2012 13:51 23,6 C 62 % 1013,4 hPa 0,0 l/m 11,9 km/h (2 Bft) NW 315 15,9 C 23,6 C
07.07.2012 13:56 23,1 C 64 % 1013,4 hPa 0,0 l/m 0,0 km/h (0 Bft) W 270 15,9 C 23,1 C
07.07.2012 14:01 22,9 C 66 % 1013,6 hPa 0,0 l/m 5,8 km/h (2 Bft) NW 315 16,2 C 22,9 C
07.07.2012 14:06 22,5 C 67 % 1013,6 hPa 0,0 l/m 8,6 km/h (2 Bft) W-SW 247 16,1 C 22,5 C
07.07.2012 14:11 22,3 C 68 % 1013,6 hPa 0,0 l/m 8,3 km/h (2 Bft) W-SW 247 16,1 C 22,3 C
07.07.2012 14:16 22,1 C 68 % 1013,5 hPa 0,0 l/m 2,5 km/h (1 Bft) W 270 15,9 C 22,1 C
07.07.2012 14:21 21,8 C 68 % 1013,8 hPa 0,0 l/m 4,7 km/h (1 Bft) W-SW 247 15,6 C 21,8 C
07.07.2012 14:26 21,5 C 67 % 1013,8 hPa 0,0 l/m 0,0 km/h (0 Bft) W-SW 247 15,1 C 21,5 C
07.07.2012 14:31 21,4 C 68 % 1013,9 hPa 0,0 l/m 4,0 km/h (1 Bft) W 270 15,2 C 21,4 C
07.07.2012 14:36 21,2 C 70 % 1013,9 hPa 0,0 l/m 2,2 km/h (1 Bft) W-NW 292 15,5 C 21,2 C
07.07.2012 14:41 21,1 C 71 % 1013,8 hPa 0,0 l/m 6,8 km/h (2 Bft) NW 315 15,6 C 21,1 C
07.07.2012 14:46 21,1 C 73 % 1013,8 hPa 0,0 l/m 5,4 km/h (1 Bft) NW 315 16,1 C 21,1 C
07.07.2012 14:51 21,2 C 74 % 1013,8 hPa 0,0 l/m 4,7 km/h (1 Bft) W-NW 292 16,4 C 21,2 C
07.07.2012 14:56 21,3 C 75 % 1013,8 hPa 0,0 l/m 3,2 km/h (1 Bft) N-NO 22 16,7 C 21,3 C
07.07.2012 15:01 21,1 C 76 % 1013,4 hPa 0,5 l/m 5,8 km/h (2 Bft) N-NO 22 16,7 C 21,1 C
07.07.2012 15:06 20,9 C 77 % 1013,3 hPa 0,0 l/m 2,5 km/h (1 Bft) N 360 16,7 C 20,9 C
07.07.2012 15:11 20,9 C 77 % 1013,2 hPa 0,0 l/m 5,4 km/h (1 Bft) N-NO 22 16,7 C 20,9 C
07.07.2012 15:16 21,0 C 78 % 1013,1 hPa 0,0 l/m 3,2 km/h (1 Bft) N 360 17,0 C 21,0 C
07.07.2012 15:21 21,3 C 78 % 1013,1 hPa 0,0 l/m 1,8 km/h (1 Bft) N 360 17,3 C 21,3 C
07.07.2012 15:26 21,8 C 78 % 1013,4 hPa 0,0 l/m 2,5 km/h (1 Bft) W-NW 292 17,8 C 21,8 C
07.07.2012 15:31 22,3 C 77 % 1013,5 hPa 0,0 l/m 9,7 km/h (2 Bft) W-NW 292 18,1 C 22,3 C
07.07.2012 15:36 22,3 C 77 % 1013,5 hPa 0,0 l/m 5,0 km/h (1 Bft) W-NW 292 18,1 C 22,3 C
07.07.2012 15:41 22,5 C 77 % 1013,4 hPa 0,0 l/m 5,8 km/h (2 Bft) W 270 18,3 C 22,5 C
07.07.2012 15:46 22,9 C 76 % 1013,4 hPa 0,0 l/m 2,2 km/h (1 Bft) W 270 18,4 C 22,9 C
07.07.2012 15:51 23,9 C 72 % 1013,1 hPa 0,0 l/m 3,6 km/h (1 Bft) N-NW 337 18,5 C 23,9 C
07.07.2012 15:56 23,9 C 64 % 1013,0 hPa 0,0 l/m 2,5 km/h (1 Bft) N-NO 22 16,7 C 23,9 C
07.07.2012 16:01 24,0 C 66 % 1012,9 hPa 0,0 l/m 2,2 km/h (1 Bft) NO 45 17,2 C 24,0 C
07.07.2012 16:06 23,7 C 63 % 1012,9 hPa 0,0 l/m 3,2 km/h (1 Bft) NO 45 16,2 C 23,7 C
07.07.2012 16:11 23,8 C 61 % 1013,0 hPa 0,0 l/m 2,2 km/h (1 Bft) O-NO 67 15,8 C 23,8 C
07.07.2012 16:16 24,4 C 61 % 1013,1 hPa 0,0 l/m 4,3 km/h (1 Bft) N 360 16,4 C 24,4 C
07.07.2012 16:21 24,4 C 60 % 1013,1 hPa 0,0 l/m 3,2 km/h (1 Bft) NW 315 16,1 C 24,4 C
07.07.2012 16:26 24,6 C 60 % 1013,0 hPa 0,0 l/m 0,0 km/h (0 Bft) N 360 16,3 C 24,6 C
07.07.2012 16:31 24,8 C 60 % 1013,3 hPa 0,0 l/m 0,0 km/h (0 Bft) N-NW 337 16,5 C 24,8 C
07.07.2012 16:36 25,0 C 60 % 1013,4 hPa 0,0 l/m 0,0 km/h (0 Bft) NW 315 16,7 C 25,0 C
07.07.2012 16:41 24,9 C 60 % 1013,3 hPa 0,0 l/m 2,2 km/h (1 Bft) NW 315 16,6 C 24,9 C
07.07.2012 16:46 24,5 C 60 % 1013,1 hPa 0,0 l/m 0,0 km/h (0 Bft) NO 45 16,2 C 24,5 C
07.07.2012 16:51 24,1 C 61 % 1013,3 hPa 0,0 l/m 0,0 km/h (0 Bft) N-NW 337 16,1 C 24,1 C
07.07.2012 16:56 24,1 C 62 % 1013,2 hPa 0,0 l/m 0,0 km/h (0 Bft) N-NW 337 16,4 C 24,1 C
07.07.2012 17:01 24,1 C 63 % 1013,2 hPa 0,0 l/m 0,0 km/h (0 Bft) NW 315 16,6 C 24,1 C
07.07.2012 17:06 24,1 C 62 % 1012,9 hPa 0,0 l/m 0,0 km/h (0 Bft) W-NW 292 16,4 C 24,1 C
07.07.2012 17:11 24,2 C 62 % 1013,1 hPa 0,0 l/m 0,0 km/h (0 Bft) W-NW 292 16,4 C 24,2 C
07.07.2012 17:16 24,3 C 62 % 1012,9 hPa 0,0 l/m 1,8 km/h (1 Bft) W 270 16,5 C 24,3 C
07.07.2012 17:21 24,5 C 61 % 1013,0 hPa 0,0 l/m 6,1 km/h (2 Bft) W 270 16,5 C 24,5 C
07.07.2012 17:26 25,5 C 60 % 1013,1 hPa 0,0 l/m 0,0 km/h (0 Bft) W-SW 247 17,2 C 25,5 C
07.07.2012 17:31 26,3 C 57 % 1013,1 hPa 0,0 l/m 1,8 km/h (1 Bft) NW 315 17,1 C 26,3 C
07.07.2012 17:36 25,9 C 57 % 1013,0 hPa 0,0 l/m 2,5 km/h (1 Bft) W-SW 247 16,7 C 25,9 C
07.07.2012 17:41 25,9 C 56 % 1012,9 hPa 0,0 l/m 1,1 km/h (1 Bft) N-NO 22 16,4 C 25,9 C
07.07.2012 17:46 25,9 C 55 % 1012,9 hPa 0,0 l/m 0,0 km/h (0 Bft) NW 315 16,2 C 25,9 C
07.07.2012 17:51 26,7 C 53 % 1012,9 hPa 0,0 l/m 0,0 km/h (0 Bft) W-NW 292 16,3 C 26,7 C
07.07.2012 17:56 26,0 C 54 % 1012,8 hPa 0,0 l/m 0,0 km/h (0 Bft) W-NW 292 16,0 C 26,0 C
07.07.2012 18:01 25,9 C 55 % 1012,8 hPa 0,0 l/m 2,9 km/h (1 Bft) W-NW 292 16,2 C 25,9 C
07.07.2012 18:06 26,1 C 55 % 1012,7 hPa 0,0 l/m 1,1 km/h (1 Bft) W-SW 247 16,3 C 26,1 C
07.07.2012 18:11 26,6 C 54 % 1012,8 hPa 0,0 l/m 4,3 km/h (1 Bft) W-SW 247 16,5 C 26,6 C
07.07.2012 18:16 26,8 C 52 % 1012,8 hPa 0,0 l/m 4,3 km/h (1 Bft) S-SW 202 16,1 C 26,8 C
07.07.2012 18:21 26,9 C 51 % 1012,8 hPa 0,0 l/m 0,0 km/h (0 Bft) W 270 15,9 C 26,9 C
07.07.2012 18:26 26,7 C 52 % 1012,8 hPa 0,0 l/m 7,9 km/h (2 Bft) W 270 16,0 C 26,7 C
07.07.2012 18:31 26,8 C 52 % 1012,9 hPa 0,0 l/m 3,6 km/h (1 Bft) SW 225 16,1 C 26,8 C
07.07.2012 18:36 26,8 C 51 % 1012,9 hPa 0,0 l/m 3,6 km/h (1 Bft) W 270 15,8 C 26,8 C
07.07.2012 18:41 26,5 C 52 % 1012,9 hPa 0,0 l/m 7,2 km/h (2 Bft) W-SW 247 15,8 C 26,5 C
07.07.2012 18:46 26,4 C 52 % 1012,9 hPa 0,0 l/m 6,5 km/h (2 Bft) W 270 15,7 C 26,4 C
07.07.2012 18:51 26,6 C 51 % 1013,0 hPa 0,0 l/m 4,7 km/h (1 Bft) SW 225 15,6 C 26,6 C
07.07.2012 18:56 27,1 C 51 % 1013,0 hPa 0,0 l/m 3,2 km/h (1 Bft) W-SW 247 16,1 C 27,1 C
07.07.2012 19:01 27,3 C 51 % 1013,1 hPa 0,0 l/m 6,5 km/h (2 Bft) S-SW 202 16,3 C 27,3 C
07.07.2012 19:06 26,9 C 50 % 1013,0 hPa 0,0 l/m 0,0 km/h (0 Bft) W 270 15,6 C 26,9 C
07.07.2012 19:11 25,9 C 51 % 1013,1 hPa 0,0 l/m 3,2 km/h (1 Bft) W-SW 247 15,0 C 25,9 C
07.07.2012 19:16 25,3 C 53 % 1013,1 hPa 0,0 l/m 3,6 km/h (1 Bft) SW 225 15,0 C 25,3 C
07.07.2012 19:21 24,6 C 55 % 1013,0 hPa 0,0 l/m 5,8 km/h (2 Bft) W-SW 247 14,9 C 24,6 C
07.07.2012 19:26 24,2 C 55 % 1013,1 hPa 0,0 l/m 1,4 km/h (1 Bft) W 270 14,6 C 24,2 C
07.07.2012 19:31 23,9 C 57 % 1012,8 hPa 0,0 l/m 0,0 km/h (0 Bft) W-SW 247 14,9 C 23,9 C
07.07.2012 19:36 23,7 C 58 % 1012,8 hPa 0,0 l/m 0,0 km/h (0 Bft) W-SW 247 14,9 C 23,7 C
07.07.2012 19:41 23,6 C 59 % 1012,8 hPa 0,0 l/m 0,0 km/h (0 Bft) W-SW 247 15,1 C 23,6 C
07.07.2012 19:46 23,5 C 59 % 1012,8 hPa 0,0 l/m 2,2 km/h (1 Bft) W-SW 247 15,0 C 23,5 C
07.07.2012 19:51 23,4 C 59 % 1012,8 hPa 0,0 l/m 0,0 km/h (0 Bft) W-SW 247 14,9 C 23,4 C
07.07.2012 19:56 23,3 C 59 % 1012,7 hPa 0,0 l/m 0,0 km/h (0 Bft) W-SW 247 14,8 C 23,3 C
07.07.2012 20:01 23,3 C 59 % 1013,1 hPa 0,0 l/m 2,2 km/h (1 Bft) S-SO 157 14,8 C 23,3 C
07.07.2012 20:06 23,1 C 60 % 1013,0 hPa 0,0 l/m 0,0 km/h (0 Bft) S-SO 157 14,9 C 23,1 C
07.07.2012 20:11 23,0 C 61 % 1012,9 hPa 0,0 l/m 0,0 km/h (0 Bft) S-SO 157 15,1 C 23,0 C
07.07.2012 20:16 22,9 C 61 % 1012,8 hPa 0,0 l/m 0,0 km/h (0 Bft) SO 135 15,0 C 22,9 C
07.07.2012 20:21 22,8 C 62 % 1012,9 hPa 0,0 l/m 2,2 km/h (1 Bft) SO 135 15,1 C 22,8 C
07.07.2012 20:26 22,7 C 63 % 1012,8 hPa 0,0 l/m 0,0 km/h (0 Bft) SO 135 15,3 C 22,7 C
07.07.2012 20:31 22,7 C 63 % 1012,8 hPa 0,0 l/m 1,4 km/h (1 Bft) S-SO 157 15,3 C 22,7 C
07.07.2012 20:36 22,6 C 63 % 1012,8 hPa 0,0 l/m 0,0 km/h (0 Bft) SO 135 15,2 C 22,6 C
07.07.2012 20:41 22,4 C 64 % 1012,8 hPa 0,0 l/m 4,0 km/h (1 Bft) SO 135 15,2 C 22,4 C
07.07.2012 20:46 22,3 C 65 % 1012,8 hPa 0,0 l/m 1,4 km/h (1 Bft) SO 135 15,4 C 22,3 C
07.07.2012 20:51 22,1 C 66 % 1012,8 hPa 0,0 l/m 4,0 km/h (1 Bft) SO 135 15,4 C 22,1 C
07.07.2012 20:56 22,1 C 66 % 1012,8 hPa 0,0 l/m 5,0 km/h (1 Bft) SO 135 15,4 C 22,1 C
07.07.2012 21:01 21,9 C 67 % 1012,8 hPa 0,0 l/m 0,0 km/h (0 Bft) SO 135 15,5 C 21,9 C
07.07.2012 21:06 21,9 C 67 % 1013,0 hPa 0,0 l/m 0,0 km/h (0 Bft) S-SO 157 15,5 C 21,9 C
07.07.2012 21:11 21,9 C 67 % 1013,0 hPa 0,0 l/m 2,2 km/h (1 Bft) S 180 15,5 C 21,9 C
07.07.2012 21:16 21,8 C 67 % 1013,0 hPa 0,0 l/m 0,0 km/h (0 Bft) S 180 15,4 C 21,8 C
07.07.2012 21:21 21,8 C 67 % 1013,1 hPa 0,0 l/m 1,1 km/h (1 Bft) S 180 15,4 C 21,8 C
07.07.2012 21:26 21,5 C 67 % 1013,3 hPa 0,0 l/m 1,8 km/h (1 Bft) S 180 15,1 C 21,5 C
07.07.2012 21:31 21,4 C 67 % 1013,2 hPa 0,0 l/m 1,4 km/h (1 Bft) S 180 15,0 C 21,4 C
07.07.2012 21:36 21,2 C 68 % 1013,3 hPa 0,0 l/m 0,0 km/h (0 Bft) S 180 15,1 C 21,2 C
07.07.2012 21:41 21,0 C 68 % 1013,2 hPa 0,0 l/m 3,6 km/h (1 Bft) S-SO 157 14,9 C 21,0 C
07.07.2012 21:46 20,8 C 69 % 1013,3 hPa 0,0 l/m 4,0 km/h (1 Bft) S-SO 157 14,9 C 20,8 C
07.07.2012 21:51 20,7 C 69 % 1013,4 hPa 0,0 l/m 5,0 km/h (1 Bft) S-SO 157 14,8 C 20,7 C
07.07.2012 21:56 20,5 C 70 % 1013,4 hPa 0,0 l/m 5,0 km/h (1 Bft) S-SO 157 14,8 C 20,5 C
07.07.2012 22:01 20,3 C 70 % 1013,3 hPa 0,0 l/m 1,8 km/h (1 Bft) S-SO 157 14,6 C 20,3 C
07.07.2012 22:06 20,2 C 71 % 1013,1 hPa 0,0 l/m 0,0 km/h (0 Bft) SO 135 14,8 C 20,2 C
07.07.2012 22:11 20,0 C 71 % 1013,1 hPa 0,0 l/m 0,0 km/h (0 Bft) S-SO 157 14,6 C 20,0 C
07.07.2012 22:16 19,9 C 72 % 1013,1 hPa 0,0 l/m 2,2 km/h (1 Bft) S-SO 157 14,7 C 19,9 C
07.07.2012 22:21 19,8 C 72 % 1013,1 hPa 0,0 l/m 4,0 km/h (1 Bft) S-SO 157 14,6 C 19,8 C
07.07.2012 22:26 19,6 C 73 % 1013,2 hPa 0,0 l/m 0,0 km/h (0 Bft) S-SO 157 14,6 C 19,6 C
07.07.2012 22:31 19,5 C 74 % 1013,5 hPa 0,0 l/m 3,2 km/h (1 Bft) S 180 14,7 C 19,5 C
07.07.2012 22:36 19,4 C 74 % 1013,3 hPa 0,0 l/m 0,0 km/h (0 Bft) S-SO 157 14,6 C 19,4 C
07.07.2012 22:41 19,3 C 75 % 1013,2 hPa 0,0 l/m 1,4 km/h (1 Bft) S 180 14,8 C 19,3 C
07.07.2012 22:46 19,2 C 75 % 1013,2 hPa 0,0 l/m 4,0 km/h (1 Bft) S-SO 157 14,7 C 19,2 C
07.07.2012 22:51 19,1 C 75 % 1013,1 hPa 0,0 l/m 1,4 km/h (1 Bft) S-SO 157 14,6 C 19,1 C
07.07.2012 22:56 18,9 C 76 % 1013,2 hPa 0,0 l/m 0,0 km/h (0 Bft) S 180 14,6 C 18,9 C
07.07.2012 23:01 18,9 C 77 % 1013,1 hPa 0,0 l/m 0,0 km/h (0 Bft) S-SO 157 14,8 C 18,9 C
07.07.2012 23:06 18,8 C 77 % 1013,2 hPa 0,0 l/m 4,3 km/h (1 Bft) S-SO 157 14,7 C 18,8 C
07.07.2012 23:11 18,7 C 77 % 1013,2 hPa 0,0 l/m 3,6 km/h (1 Bft) S 180 14,6 C 18,7 C
07.07.2012 23:16 18,6 C 78 % 1013,3 hPa 0,0 l/m 0,0 km/h (0 Bft) S 180 14,7 C 18,6 C
07.07.2012 23:21 18,6 C 78 % 1013,3 hPa 0,0 l/m 0,0 km/h (0 Bft) S-SO 157 14,7 C 18,6 C
07.07.2012 23:26 18,4 C 79 % 1013,3 hPa 0,0 l/m 2,5 km/h (1 Bft) S-SO 157 14,7 C 18,4 C
07.07.2012 23:31 18,4 C 79 % 1013,4 hPa 0,0 l/m 1,8 km/h (1 Bft) S-SO 157 14,7 C 18,4 C
07.07.2012 23:36 18,3 C 79 % 1013,4 hPa 0,0 l/m 0,0 km/h (0 Bft) S-SO 157 14,6 C 18,3 C
07.07.2012 23:41 18,2 C 80 % 1013,4 hPa 0,0 l/m 3,2 km/h (1 Bft) S-SO 157 14,7 C 18,2 C
07.07.2012 23:46 18,1 C 80 % 1013,5 hPa 0,0 l/m 2,9 km/h (1 Bft) S 180 14,6 C 18,1 C
07.07.2012 23:51 18,1 C 80 % 1013,5 hPa 0,0 l/m 0,0 km/h (0 Bft) S-SO 157 14,6 C 18,1 C
07.07.2012 23:56 18,0 C 81 % 1013,4 hPa 0,0 l/m 0,0 km/h (0 Bft) S-SO 157 14,7 C 18,0 C
_ Min-Zeit 23:56 19:06 06:41 - 00:01 - - 22:51 23:56
Minimum _ 18,0 C 50 % 1012,2 hPa - 0,0 km/h (0 Bft) - - 14,6 C 18,0 C
_ Max-Zeit 19:01 07:21 14:31 15:01 13:46 - - 10:16 19:01
Maximum _ 27,3 C 86 % 1013,9 hPa 0,5 l/m 21,6 km/h
NW (4 Bft)
- - 18,8 C 27,3 C
Durchschnitt _ 22,3 C 73 % 1013,1 hPa #0,5 l/m 2,2 km/h (1 Bft) N - 17,0 C 22,3 C
(c) by David Heller